Time;durP1;ratioP1;P1;durP2;ratioP2;P2;SDS_P1;SDS_P2;PMS_P1;PMS_P2;Temp;Humidity;BMP_temperature;BMP_pressure;BME280_temperature;BME280_humidity;BME280_pressure;Samples;Min_cycle;Max_cycle;Signal;HPM_P1;HPM_P2
2022/09/24 00:01:21;;;;;;;6.32;5.03;;;12.00;99.90;;;;;;5038226;28;20045;-58
2022/09/24 00:04:01;;;;;;;9.90;5.70;;;12.00;99.90;;;;;;5047566;28;20041;-54
2022/09/24 00:06:30;;;;;;;6.72;5.05;;;12.00;99.90;;;;;;5030862;28;20044;-57
2022/09/24 00:08:57;;;;;;;7.55;4.82;;;12.00;99.90;;;;;;5036757;28;20045;-57
2022/09/24 00:11:27;;;;;;;11.65;5.22;;;12.00;99.90;;;;;;5029178;28;20052;-57
2022/09/24 00:13:56;;;;;;;6.18;5.05;;;12.00;99.90;;;;;;5032874;28;20053;-57
2022/09/24 00:16:26;;;;;;;8.45;5.82;;;12.00;99.90;;;;;;5032587;28;20111;-54
2022/09/24 00:18:53;;;;;;;10.25;5.18;;;12.00;99.90;;;;;;5036283;28;20049;-55
2022/09/24 00:21:23;;;;;;;15.60;6.38;;;11.90;99.90;;;;;;5030457;28;20128;-54
2022/09/24 00:23:57;;;;;;;8.85;6.35;;;11.90;99.90;;;;;;5028822;28;20041;-56
2022/09/24 00:29:12;;;;;;;9.10;5.78;;;11.80;99.90;;;;;;5031391;28;20053;-55
2022/09/24 00:31:39;;;;;;;7.07;5.32;;;11.80;99.90;;;;;;5033820;28;20041;-53
2022/09/24 00:34:06;;;;;;;7.35;4.85;;;11.80;99.90;;;;;;5032059;28;20049;-57
2022/09/24 00:36:33;;;;;;;6.90;6.07;;;11.80;99.90;;;;;;5028313;28;20040;-56
2022/09/24 00:39:00;;;;;;;9.40;6.32;;;11.80;99.90;;;;;;5033726;28;20037;-56
2022/09/24 00:41:30;;;;;;;;;;;11.80;99.90;;;;;;5032444;28;20124;-56
2022/09/24 00:43:58;;;;;;;12.35;6.50;;;11.80;99.90;;;;;;5032790;28;19972;-55
2022/09/24 00:46:43;;;;;;;12.18;6.85;;;11.80;99.90;;;;;;5032747;28;20789;-56
2022/09/24 00:49:13;;;;;;;8.85;6.43;;;11.80;99.90;;;;;;5049599;28;20496;-53
2022/09/24 00:51:44;;;;;;;12.60;7.10;;;11.70;99.90;;;;;;5027559;28;20064;-55
2022/09/24 00:54:16;;;;;;;11.85;7.68;;;11.70;99.90;;;;;;5032389;28;20670;-58
2022/09/24 00:56:45;;;;;;;11.98;7.55;;;11.70;99.90;;;;;;5031172;28;20059;-55
2022/09/24 00:59:16;;;;;;;11.05;6.35;;;11.60;99.90;;;;;;5034147;28;20041;-54
2022/09/24 01:01:44;;;;;;;7.72;6.10;;;11.60;99.90;;;;;;5032865;28;20055;-55
2022/09/24 01:04:12;;;;;;;11.57;6.93;;;11.60;99.90;;;;;;5034333;28;20663;-56
2022/09/24 01:06:39;;;;;;;13.70;7.38;;;11.70;99.90;;;;;;5033878;28;20056;-56
2022/09/24 01:09:06;;;;;;;11.88;7.47;;;11.60;99.90;;;;;;5035529;28;20094;-56
2022/09/24 01:12:03;;;;;;;10.82;8.10;;;11.60;99.90;;;;;;5034656;28;20041;-57
2022/09/24 01:14:57;;;;;;;20.08;7.72;;;11.60;99.90;;;;;;5034396;28;20037;-55
2022/09/24 01:17:39;;;;;;;15.35;6.82;;;11.50;99.90;;;;;;5037431;28;20059;-57
2022/09/24 01:20:33;;;;;;;12.23;7.30;;;11.50;99.90;;;;;;5036115;28;20045;-57
2022/09/24 01:23:34;;;;;;;14.90;7.45;;;11.40;99.90;;;;;;5034357;28;20033;-57
2022/09/24 01:26:18;;;;;;;10.45;7.28;;;11.40;99.90;;;;;;5029929;28;20120;-56
2022/09/24 01:29:27;;;;;;;9.85;6.93;;;11.30;99.90;;;;;;5035127;28;20482;-56
2022/09/24 01:32:00;;;;;;;9.23;6.53;;;11.40;99.90;;;;;;5033968;28;20040;-56
2022/09/24 01:34:36;;;;;;;8.02;6.63;;;11.40;99.90;;;;;;5034045;28;20132;-58
2022/09/24 01:37:03;;;;;;;10.90;6.50;;;11.30;99.90;;;;;;5031062;28;20495;-57
2022/09/24 01:39:32;;;;;;;9.57;6.88;;;11.40;99.90;;;;;;5034758;28;20107;-57
2022/09/24 01:41:59;;;;;;;12.50;6.82;;;11.40;99.90;;;;;;5031952;28;20120;-56
2022/09/24 01:44:26;;;;;;;10.68;6.97;;;11.40;99.90;;;;;;5033017;28;20477;-56
2022/09/24 01:46:54;;;;;;;10.43;6.97;;;11.50;99.90;;;;;;5036139;28;20120;-58
2022/09/24 01:49:21;;;;;;;7.57;6.40;;;11.50;99.90;;;;;;5030497;28;20399;-56
2022/09/24 01:51:57;;;;;;;8.20;6.93;;;11.50;99.90;;;;;;5033716;28;20041;-55
2022/09/24 01:54:34;;;;;;;13.63;7.82;;;11.50;99.90;;;;;;5028335;28;20049;-56
2022/09/24 01:57:16;;;;;;;11.10;6.68;;;11.50;99.90;;;;;;5030220;28;20045;-55
2022/09/24 01:59:54;;;;;;;9.95;6.72;;;11.50;99.90;;;;;;5031155;28;20549;-56
2022/09/24 02:02:32;;;;;;;13.85;7.63;;;11.50;99.90;;;;;;5032368;28;20045;-55
2022/09/24 02:05:41;;;;;;;14.45;7.25;;;11.60;99.90;;;;;;5034849;28;20048;-58
2022/09/24 02:08:23;;;;;;;8.77;6.57;;;11.60;99.90;;;;;;5028924;28;20051;-56
2022/09/24 02:11:01;;;;;;;11.05;6.68;;;11.60;99.90;;;;;;5031502;28;20244;-55
2022/09/24 02:13:39;;;;;;;8.70;6.45;;;11.70;99.90;;;;;;5034620;28;20502;-57
2022/09/24 02:16:08;;;;;;;20.25;7.47;;;11.80;99.90;;;;;;5025646;28;20512;-55
2022/09/24 02:18:39;;;;;;;11.00;7.53;;;11.90;99.90;;;;;;5029148;28;20048;-53
2022/09/24 02:21:12;;;;;;;7.40;6.35;;;12.10;99.90;;;;;;5032508;28;20056;-55
2022/09/24 02:23:50;;;;;;;10.38;6.88;;;12.20;99.90;;;;;;5033673;28;20091;-56
2022/09/24 02:26:17;;;;;;;9.63;6.55;;;12.40;99.90;;;;;;5032111;28;20446;-58
2022/09/24 02:28:44;;;;;;;14.63;6.22;;;12.50;99.90;;;;;;5030772;28;20451;-56
2022/09/24 02:31:16;;;;;;;12.90;6.35;;;12.50;99.90;;;;;;5029371;28;20045;-57
2022/09/24 02:36:33;;;;;;;11.98;6.07;;;12.60;99.90;;;;;;5030167;28;20100;-55
2022/09/24 02:39:01;;;;;;;8.00;5.80;;;12.70;99.90;;;;;;5027039;28;20052;-56
2022/09/24 02:41:30;;;;;;;10.23;5.70;;;12.70;99.90;;;;;;5035314;28;20566;-56
2022/09/24 02:43:57;;;;;;;10.35;6.53;;;12.70;99.90;;;;;;5027237;28;20127;-57
2022/09/24 02:46:24;;;;;;;9.07;6.25;;;12.70;99.90;;;;;;5034084;28;20045;-57
2022/09/24 02:48:50;;;;;;;8.93;6.50;;;12.70;99.90;;;;;;5033701;28;20217;-56
2022/09/24 02:51:17;;;;;;;9.70;5.93;;;12.70;99.90;;;;;;5030223;28;20041;-55
2022/09/24 02:53:44;;;;;;;;;;;12.70;99.90;;;;;;5028821;28;20739;-56
2022/09/24 02:56:11;;;;;;;7.10;5.65;;;12.70;99.90;;;;;;5023920;28;19927;-56
2022/09/24 02:58:37;;;;;;;10.57;5.90;;;12.70;99.90;;;;;;5029965;28;20050;-57
2022/09/24 03:01:04;;;;;;;6.50;5.60;;;12.70;99.90;;;;;;5031173;28;20048;-55
2022/09/24 03:03:32;;;;;;;9.77;5.20;;;12.70;99.90;;;;;;5030674;28;20042;-57
2022/09/24 03:05:58;;;;;;;11.02;5.78;;;12.70;99.90;;;;;;5035468;28;20042;-58
2022/09/24 03:08:25;;;;;;;;;;;12.70;99.90;;;;;;5029371;28;20049;-57
2022/09/24 03:10:54;;;;;;;8.30;5.93;;;12.70;99.90;;;;;;5030700;28;19924;-57
2022/09/24 03:13:21;;;;;;;9.98;6.22;;;12.70;99.90;;;;;;5030938;28;20045;-56
2022/09/24 03:15:48;;;;;;;;;;;12.70;99.90;;;;;;5029215;28;20065;-54
2022/09/24 03:18:14;;;;;;;14.68;7.38;;;12.70;99.90;;;;;;5034024;28;19925;-54
2022/09/24 03:20:42;;;;;;;9.50;7.25;;;12.70;99.90;;;;;;5029874;28;20081;-58
2022/09/24 03:23:08;;;;;;;11.32;6.72;;;12.70;99.90;;;;;;5028892;28;20502;-55
2022/09/24 03:25:35;;;;;;;7.68;6.35;;;12.60;99.90;;;;;;5029708;28;20059;-54
2022/09/24 03:28:02;;;;;;;;;;;12.60;99.90;;;;;;5028227;28;20048;-57
2022/09/24 03:33:14;;;;;;;6.90;4.80;;;12.60;99.90;;;;;;5031742;28;20415;-55
2022/09/24 03:35:41;;;;;;;7.07;5.63;;;12.50;99.90;;;;;;5033347;28;20426;-57
2022/09/24 03:38:08;;;;;;;5.85;4.72;;;12.50;99.90;;;;;;5037432;28;20049;-57
2022/09/24 03:40:35;;;;;;;;;;;12.50;99.90;;;;;;5028888;28;20579;-57
2022/09/24 03:43:01;;;;;;;10.80;8.20;;;12.50;99.90;;;;;;5030698;28;20040;-57
2022/09/24 03:45:28;;;;;;;6.95;5.25;;;12.50;99.90;;;;;;5033801;28;20087;-57
2022/09/24 03:47:55;;;;;;;10.18;7.65;;;12.40;99.90;;;;;;5037525;28;20513;-55
2022/09/24 03:50:21;;;;;;;9.40;6.95;;;12.40;99.90;;;;;;5035049;28;20546;-55
2022/09/24 03:52:48;;;;;;;;;;;12.30;99.90;;;;;;5036210;28;20037;-56
2022/09/24 03:55:15;;;;;;;6.72;5.60;;;12.30;99.90;;;;;;5033784;28;20024;-53
2022/09/24 03:57:41;;;;;;;8.65;5.70;;;12.20;99.90;;;;;;5035005;28;20049;-55
2022/09/24 04:00:09;;;;;;;5.38;4.28;;;12.20;99.90;;;;;;5032503;28;20153;-56
2022/09/24 04:02:35;;;;;;;6.03;5.43;;;12.20;99.90;;;;;;5036212;28;20079;-55
2022/09/24 04:05:02;;;;;;;9.30;7.20;;;12.20;99.90;;;;;;5033776;28;20052;-54
2022/09/24 04:07:29;;;;;;;;;;;12.10;99.90;;;;;;5033408;28;20250;-54
2022/09/24 04:09:56;;;;;;;11.88;9.20;;;12.10;99.90;;;;;;5033030;28;20008;-53
2022/09/24 04:12:22;;;;;;;10.38;8.18;;;12.10;99.90;;;;;;5033960;28;20041;-55
2022/09/24 04:14:49;;;;;;;12.43;7.88;;;12.00;99.90;;;;;;5033196;28;20096;-55
2022/09/24 04:17:16;;;;;;;;;;;12.00;99.90;;;;;;5028056;28;20049;-53
2022/09/24 04:19:43;;;;;;;9.10;7.72;;;12.00;99.90;;;;;;5038155;28;19921;-57
2022/09/24 04:22:09;;;;;;;8.88;7.97;;;11.90;99.90;;;;;;5034947;28;20048;-56
2022/09/24 04:24:36;;;;;;;;;;;11.90;99.90;;;;;;5032409;28;20041;-56
2022/09/24 04:27:03;;;;;;;12.30;7.38;;;11.90;99.90;;;;;;5039009;28;19925;-57
2022/09/24 04:29:29;;;;;;;11.45;8.85;;;11.90;99.90;;;;;;5031442;28;20050;-55
2022/09/24 04:31:56;;;;;;;11.00;8.45;;;11.90;99.90;;;;;;5037378;28;20049;-56
2022/09/24 04:34:23;;;;;;;10.05;8.43;;;11.90;99.90;;;;;;5034307;28;20067;-56
2022/09/24 04:36:49;;;;;;;11.57;8.75;;;11.90;99.90;;;;;;5031533;28;20102;-55
2022/09/24 04:39:16;;;;;;;11.38;9.43;;;11.90;99.90;;;;;;5031466;28;20740;-56
2022/09/24 04:41:43;;;;;;;10.52;9.43;;;11.90;99.90;;;;;;5029860;28;20470;-55
2022/09/24 04:44:12;;;;;;;;;;;11.90;99.90;;;;;;5032645;28;20071;-56
2022/09/24 04:46:39;;;;;;;14.50;9.85;;;11.90;99.90;;;;;;5035733;28;19978;-56
2022/09/24 04:49:08;;;;;;;11.57;9.40;;;11.90;99.90;;;;;;5033345;28;20037;-53
2022/09/24 04:51:35;;;;;;;15.63;10.65;;;11.90;99.90;;;;;;5034851;28;20346;-54
2022/09/24 04:54:02;;;;;;;12.30;8.75;;;11.90;99.90;;;;;;5031301;28;20056;-55
2022/09/24 04:56:30;;;;;;;11.57;9.30;;;11.90;99.90;;;;;;5032528;28;20041;-54
2022/09/24 04:58:57;;;;;;;15.52;8.75;;;11.90;99.90;;;;;;5033339;28;20152;-54
2022/09/24 05:01:24;;;;;;;8.80;7.50;;;11.90;99.90;;;;;;5035672;28;20045;-55
2022/09/24 05:03:52;;;;;;;9.90;7.97;;;11.90;99.90;;;;;;5031568;28;20084;-53
2022/09/24 05:06:19;;;;;;;8.90;7.35;;;12.00;99.90;;;;;;5033360;28;20091;-56
2022/09/24 05:08:45;;;;;;;10.40;6.85;;;12.00;99.90;;;;;;5035274;28;20059;-56
2022/09/24 05:11:12;;;;;;;15.80;9.70;;;12.00;99.90;;;;;;5032460;28;20063;-57
2022/09/24 05:13:39;;;;;;;13.32;8.23;;;12.10;99.90;;;;;;5031415;28;20127;-56
2022/09/24 05:16:05;;;;;;;12.23;7.75;;;12.10;99.90;;;;;;5034892;28;20079;-55
2022/09/24 05:18:32;;;;;;;;;;;12.10;99.90;;;;;;5033991;28;20068;-58
2022/09/24 05:20:59;;;;;;;14.30;8.30;;;12.10;99.90;;;;;;5034026;28;19944;-58
2022/09/24 05:23:25;;;;;;;10.95;8.15;;;12.10;99.90;;;;;;5032954;28;20052;-55
2022/09/24 05:28:39;;;;;;;9.07;7.45;;;12.10;99.90;;;;;;5032873;28;20120;-56
2022/09/24 05:31:07;;;;;;;8.05;7.18;;;12.10;99.90;;;;;;5033344;28;20041;-58
2022/09/24 05:33:35;;;;;;;10.75;7.47;;;12.10;99.90;;;;;;5033615;28;20106;-56
2022/09/24 05:36:03;;;;;;;7.50;6.45;;;12.10;99.90;;;;;;5027278;28;20054;-57
2022/09/24 05:38:31;;;;;;;10.48;7.28;;;12.10;99.90;;;;;;5029562;28;20128;-54
2022/09/24 05:40:58;;;;;;;10.80;7.40;;;12.10;99.90;;;;;;5031576;28;20049;-49
2022/09/24 05:43:26;;;;;;;7.82;6.45;;;12.10;99.90;;;;;;5034484;28;20056;-49
2022/09/24 05:45:53;;;;;;;9.63;7.57;;;12.10;99.90;;;;;;5034216;28;20041;-57
2022/09/24 05:48:20;;;;;;;;;;;12.10;99.90;;;;;;5033352;28;20040;-54
2022/09/24 05:50:46;;;;;;;10.70;7.03;;;12.10;99.90;;;;;;5029520;28;19932;-55
2022/09/24 05:53:13;;;;;;;7.10;6.35;;;12.10;99.90;;;;;;5031977;28;20136;-57
2022/09/24 05:55:42;;;;;;;7.15;6.30;;;12.10;99.90;;;;;;5031003;28;20367;-55
2022/09/24 05:58:12;;;;;;;7.57;5.85;;;12.10;99.90;;;;;;5028565;28;20041;-55
2022/09/24 06:00:39;;;;;;;10.90;8.02;;;12.10;99.90;;;;;;5030004;28;20129;-54
2022/09/24 06:03:09;;;;;;;;;;;12.10;99.90;;;;;;5027298;28;20037;-54
2022/09/24 06:05:36;;;;;;;9.75;7.28;;;12.10;99.90;;;;;;5031916;28;19925;-57
2022/09/24 06:08:04;;;;;;;8.15;7.25;;;12.10;99.90;;;;;;5028374;28;20478;-54
2022/09/24 06:10:31;;;;;;;6.63;6.03;;;12.20;99.90;;;;;;5030341;28;20741;-56
2022/09/24 06:12:58;;;;;;;7.00;6.05;;;12.10;99.90;;;;;;5035020;28;20045;-54
2022/09/24 06:15:26;;;;;;;;;;;12.20;99.90;;;;;;5034723;28;20099;-53
2022/09/24 06:17:53;;;;;;;8.50;5.80;;;12.20;99.90;;;;;;5033311;28;19931;-52
2022/09/24 06:20:21;;;;;;;11.55;5.80;;;12.20;99.90;;;;;;5033135;28;20099;-52
2022/09/24 06:22:49;;;;;;;6.70;5.50;;;12.20;99.90;;;;;;5026303;28;20055;-53
2022/09/24 06:25:16;;;;;;;6.53;5.80;;;12.20;99.90;;;;;;5029906;28;20048;-56
2022/09/24 06:27:42;;;;;;;6.10;5.50;;;12.20;99.90;;;;;;5031579;28;20045;-55
2022/09/24 06:30:10;;;;;;;7.18;6.07;;;12.20;99.90;;;;;;5027315;28;20041;-55
2022/09/24 06:32:37;;;;;;;8.23;6.68;;;12.20;99.90;;;;;;5030143;28;20515;-54
2022/09/24 06:35:04;;;;;;;6.50;5.90;;;12.20;99.90;;;;;;5030704;28;20505;-56
2022/09/24 06:37:31;;;;;;;6.95;5.72;;;12.20;99.90;;;;;;5031558;28;20056;-57
2022/09/24 06:39:58;;;;;;;7.30;6.60;;;12.20;99.90;;;;;;5030566;28;20041;-54
2022/09/24 06:42:26;;;;;;;6.75;6.05;;;12.20;99.90;;;;;;5029815;28;20065;-54
2022/09/24 06:44:54;;;;;;;7.20;6.22;;;12.20;99.90;;;;;;5030376;28;20045;-56
2022/09/24 06:47:22;;;;;;;7.75;6.97;;;12.20;99.90;;;;;;5031236;28;20049;-54
2022/09/24 06:49:49;;;;;;;8.40;6.40;;;12.20;99.90;;;;;;5026751;28;20048;-54
2022/09/24 06:52:16;;;;;;;10.35;6.57;;;12.20;99.90;;;;;;5033335;28;20111;-57
2022/09/24 06:54:42;;;;;;;9.32;6.72;;;12.20;99.90;;;;;;5029899;28;20588;-57
2022/09/24 06:57:10;;;;;;;8.23;6.70;;;12.20;99.90;;;;;;5031524;28;20059;-55
2022/09/24 06:59:36;;;;;;;11.70;7.60;;;12.30;99.90;;;;;;5031686;28;20045;-56
2022/09/24 07:02:03;;;;;;;14.15;8.82;;;12.30;99.90;;;;;;5032318;28;20059;-54
2022/09/24 07:04:30;;;;;;;;;;;12.30;99.90;;;;;;5029226;28;20561;-53
2022/09/24 07:09:42;;;;;;;7.30;6.50;;;12.30;99.90;;;;;;5028705;28;20054;-57
2022/09/24 07:12:09;;;;;;;11.25;8.55;;;12.30;99.90;;;;;;5031488;28;20052;-56
2022/09/24 07:14:36;;;;;;;12.20;8.18;;;12.30;99.90;;;;;;5035722;28;20041;-55
2022/09/24 07:17:02;;;;;;;8.07;6.97;;;12.30;99.90;;;;;;5035240;28;20052;-57
2022/09/24 07:19:29;;;;;;;9.38;6.45;;;12.30;99.90;;;;;;5028141;28;20132;-53
2022/09/24 07:21:56;;;;;;;8.13;7.30;;;12.30;99.90;;;;;;5035005;28;20395;-56
2022/09/24 07:24:23;;;;;;;13.68;8.15;;;12.30;99.90;;;;;;5033192;28;20041;-55
2022/09/24 07:26:50;;;;;;;11.07;8.43;;;12.40;99.90;;;;;;5037849;28;20047;-54
2022/09/24 07:29:17;;;;;;;;;;;12.30;99.90;;;;;;5036398;28;20045;-52
2022/09/24 07:31:44;;;;;;;8.60;7.22;;;12.40;99.90;;;;;;5031692;28;20019;-55
2022/09/24 07:34:10;;;;;;;;;;;12.40;99.90;;;;;;5034706;28;20041;-56
2022/09/24 07:36:37;;;;;;;10.77;7.57;;;12.40;99.90;;;;;;5032562;28;20805;-55
2022/09/24 07:39:04;;;;;;;10.95;9.15;;;12.40;99.90;;;;;;5036581;28;20048;-57
2022/09/24 07:41:30;;;;;;;12.30;8.07;;;12.50;99.90;;;;;;5034411;28;20143;-55
2022/09/24 07:43:57;;;;;;;7.40;6.70;;;12.50;99.90;;;;;;5029259;28;20045;-58
2022/09/24 07:46:24;;;;;;;;;;;12.50;99.90;;;;;;5032192;28;20648;-54
2022/09/24 07:48:57;;;;;;;15.18;8.82;;;12.50;99.90;;;;;;5038392;28;19952;-56
2022/09/24 07:51:27;;;;;;;10.50;7.28;;;12.60;99.90;;;;;;5034500;28;20073;-55
2022/09/24 07:53:55;;;;;;;8.98;7.80;;;12.60;99.90;;;;;;5035266;28;20461;-56
2022/09/24 07:56:23;;;;;;;6.85;6.18;;;12.60;99.90;;;;;;5029339;28;20174;-54
2022/09/24 07:58:50;;;;;;;11.00;6.88;;;12.70;99.90;;;;;;5032539;28;20041;-56
2022/09/24 08:01:18;;;;;;;9.80;7.13;;;12.70;99.90;;;;;;5036193;28;20045;-54
2022/09/24 08:03:45;;;;;;;11.57;5.97;;;12.80;99.90;;;;;;5032331;28;20866;-55
2022/09/24 08:06:12;;;;;;;12.23;6.47;;;12.80;99.90;;;;;;5036318;28;20037;-57
2022/09/24 08:08:39;;;;;;;8.85;6.60;;;12.90;99.90;;;;;;5035184;28;20047;-54
2022/09/24 08:11:07;;;;;;;;;;;12.90;99.90;;;;;;5034144;28;20072;-56
2022/09/24 08:13:34;;;;;;;10.07;7.22;;;13.00;99.90;;;;;;5035276;28;19932;-56
2022/09/24 08:16:02;;;;;;;7.50;6.72;;;13.00;99.90;;;;;;5032785;28;20037;-54
2022/09/24 08:18:30;;;;;;;7.65;6.15;;;13.10;99.90;;;;;;5027620;28;20150;-52
2022/09/24 08:21:01;;;;;;;9.27;6.65;;;13.10;99.90;;;;;;5031778;28;20055;-58
2022/09/24 08:23:28;;;;;;;12.45;7.38;;;13.20;99.90;;;;;;5034316;28;20057;-58
2022/09/24 08:25:55;;;;;;;11.52;7.68;;;13.20;99.90;;;;;;5033872;28;20047;-52
2022/09/24 08:28:21;;;;;;;9.07;7.30;;;13.20;99.90;;;;;;5034247;28;20693;-57
2022/09/24 08:30:48;;;;;;;10.98;7.00;;;13.30;99.90;;;;;;5036936;28;20083;-56
2022/09/24 08:33:15;;;;;;;9.23;6.57;;;13.30;99.90;;;;;;5032499;28;20824;-56
2022/09/24 08:35:42;;;;;;;8.35;6.50;;;13.30;99.90;;;;;;5030351;28;20052;-57
2022/09/24 08:38:08;;;;;;;;;;;13.30;99.90;;;;;;5034424;28;20051;-57
2022/09/24 08:40:41;;;;;;;7.10;5.68;;;13.20;99.90;;;;;;5033503;28;20018;-55
2022/09/24 08:43:26;;;;;;;7.22;6.15;;;13.30;99.90;;;;;;5028521;28;20632;-53
2022/09/24 08:48:50;;;;;;;10.38;7.07;;;13.30;99.90;;;;;;5031830;28;20505;-56
2022/09/24 08:51:20;;;;;;;11.00;6.55;;;13.40;99.90;;;;;;5033466;28;20040;-59
2022/09/24 08:54:05;;;;;;;9.55;6.93;;;13.40;99.90;;;;;;5033106;28;20074;-55
2022/09/24 08:56:36;;;;;;;9.63;6.72;;;13.40;99.90;;;;;;5043646;28;20158;-55
2022/09/24 08:59:25;;;;;;;8.68;7.05;;;13.40;99.90;;;;;;5034316;28;20049;-54
2022/09/24 09:02:18;;;;;;;8.85;6.97;;;13.50;99.90;;;;;;5029561;28;20698;-55
2022/09/24 09:05:03;;;;;;;17.48;14.27;;;13.50;99.90;;;;;;5031140;28;20054;-57
2022/09/24 09:07:42;;;;;;;17.80;12.75;;;13.50;99.90;;;;;;5033942;28;20053;-57
2022/09/24 09:10:16;;;;;;;9.15;7.95;;;13.50;99.90;;;;;;5034095;28;20037;-56
2022/09/24 09:13:19;;;;;;;9.88;6.97;;;13.50;99.90;;;;;;5033780;28;20060;-55
2022/09/24 09:16:02;;;;;;;9.68;6.75;;;13.60;99.90;;;;;;5027943;28;20045;-57
2022/09/24 09:18:40;;;;;;;9.38;6.55;;;13.60;99.90;;;;;;5028680;28;20751;-61
2022/09/24 09:21:16;;;;;;;13.02;9.68;;;13.60;99.90;;;;;;5036825;28;20094;-62
2022/09/24 09:23:51;;;;;;;12.93;8.00;;;13.60;99.90;;;;;;5030125;28;20055;-55
2022/09/24 09:26:19;;;;;;;8.57;7.20;;;13.70;99.90;;;;;;5028880;28;20589;-62
2022/09/24 09:28:47;;;;;;;10.27;7.03;;;13.70;99.90;;;;;;5034795;28;20037;-59
2022/09/24 09:31:38;;;;;;;6.35;5.75;;;13.70;99.90;;;;;;5031816;28;20045;-59
2022/09/24 09:34:08;;;;;;;7.57;5.70;;;13.70;99.90;;;;;;5024866;28;20120;-59
2022/09/24 09:37:00;;;;;;;8.07;6.55;;;13.70;99.90;;;;;;5031854;28;20049;-57
2022/09/24 09:39:59;;;;;;;6.85;5.43;;;13.70;99.90;;;;;;5029890;28;20092;-57
2022/09/24 09:42:34;;;;;;;8.23;6.22;;;13.70;99.90;;;;;;5034987;28;20838;-55
2022/09/24 09:45:23;;;;;;;8.75;7.80;;;13.80;99.90;;;;;;5031194;28;20045;-55
2022/09/24 09:47:58;;;;;;;8.63;5.70;;;13.80;99.90;;;;;;5027391;28;20053;-61
2022/09/24 09:50:45;;;;;;;5.88;4.90;;;13.80;99.90;;;;;;5030411;28;20056;-57
2022/09/24 09:53:26;;;;;;;10.23;7.13;;;13.80;99.90;;;;;;5030524;28;20049;-56
2022/09/24 09:56:01;;;;;;;9.02;6.95;;;13.80;99.90;;;;;;5031282;28;20049;-62
2022/09/24 09:58:32;;;;;;;9.10;7.20;;;13.80;99.90;;;;;;5023845;28;20044;-62
2022/09/24 10:01:08;;;;;;;10.80;7.65;;;13.70;99.90;;;;;;5027791;28;20740;-56
2022/09/24 10:04:01;;;;;;;10.70;7.65;;;13.70;99.90;;;;;;5034094;28;20069;-61
2022/09/24 10:06:34;;;;;;;11.35;8.32;;;13.70;99.90;;;;;;5030272;28;20049;-55
2022/09/24 10:09:21;;;;;;;10.82;8.30;;;13.70;99.90;;;;;;5024577;28;20871;-56
2022/09/24 10:11:48;;;;;;;10.93;8.40;;;13.70;99.90;;;;;;5021747;28;20045;-55
2022/09/24 10:14:18;;;;;;;10.68;6.78;;;13.70;99.90;;;;;;5033591;28;20033;-55
2022/09/24 10:16:53;;;;;;;11.52;7.10;;;13.70;99.90;;;;;;5032313;28;20111;-56
2022/09/24 10:19:24;;;;;;;10.48;7.00;;;13.70;99.90;;;;;;5025536;28;20045;-57
2022/09/24 10:21:53;;;;;;;10.30;8.43;;;13.70;99.90;;;;;;5029660;28;20037;-56
2022/09/24 10:24:25;;;;;;;10.20;8.48;;;13.80;99.90;;;;;;5031184;28;20045;-56
2022/09/24 10:26:53;;;;;;;11.02;9.20;;;13.80;99.90;;;;;;5029947;28;20697;-57
2022/09/24 10:32:29;;;;;;;9.80;7.95;;;13.90;99.90;;;;;;5023603;28;20050;-55
2022/09/24 10:35:01;;;;;;;9.70;7.53;;;13.90;99.90;;;;;;5029362;28;20044;-57
2022/09/24 10:37:28;;;;;;;9.57;7.97;;;14.00;99.90;;;;;;5031955;28;20114;-58
2022/09/24 10:40:00;;;;;;;11.63;8.02;;;14.10;99.90;;;;;;5030832;28;20055;-56
2022/09/24 10:42:29;;;;;;;8.20;6.78;;;14.10;99.90;;;;;;5031214;28;20059;-61
2022/09/24 10:45:00;;;;;;;11.05;7.65;;;14.10;99.90;;;;;;5026034;28;20068;-56
2022/09/24 10:47:56;;;;;;;10.93;7.47;;;14.10;99.90;;;;;;5026514;28;20046;-57
2022/09/24 10:50:26;;;;;;;8.38;7.30;;;14.20;99.90;;;;;;5027773;28;20049;-55
2022/09/24 10:53:14;;;;;;;9.02;6.63;;;14.20;99.90;;;;;;5028645;28;20041;-62
2022/09/24 10:55:53;;;;;;;10.95;7.07;;;14.10;99.90;;;;;;5028008;28;20053;-54
2022/09/24 10:58:47;;;;;;;9.32;7.90;;;14.10;99.90;;;;;;5022724;28;20122;-60
2022/09/24 11:01:34;;;;;;;11.98;8.48;;;14.10;99.90;;;;;;5026829;28;20134;-54
2022/09/24 11:04:18;;;;;;;9.57;6.77;;;14.10;99.90;;;;;;5025479;28;20279;-54
2022/09/24 11:07:22;;;;;;;10.23;8.43;;;14.10;99.90;;;;;;5027746;28;20046;-53
2022/09/24 11:10:30;;;;;;;10.07;7.97;;;14.10;99.90;;;;;;5031123;28;20083;-53
2022/09/24 11:13:25;;;;;;;13.20;7.85;;;14.20;99.90;;;;;;5031232;28;20052;-54
2022/09/24 11:16:14;;;;;;;8.98;6.45;;;14.10;99.90;;;;;;5017189;28;20053;-55
2022/09/24 11:18:56;;;;;;;8.07;5.53;;;14.10;99.90;;;;;;5020073;28;20083;-55
2022/09/24 11:22:12;;;;;;;7.03;6.35;;;14.10;99.90;;;;;;5018742;28;20067;-53
2022/09/24 11:24:57;;;;;;;16.63;12.00;;;14.10;99.90;;;;;;5008083;28;20463;-54
2022/09/24 11:27:42;;;;;;;22.33;13.60;;;14.10;99.90;;;;;;5016733;28;20183;-57
2022/09/24 11:30:15;;;;;;;17.92;10.48;;;14.00;99.90;;;;;;5025331;28;20572;-55
2022/09/24 11:33:19;;;;;;;11.13;8.18;;;13.90;99.90;;;;;;5018626;28;20049;-55
2022/09/24 11:36:18;;;;;;;11.40;6.85;;;13.90;99.90;;;;;;5017779;28;20056;-56
2022/09/24 11:39:20;;;;;;;8.27;7.45;;;13.90;99.90;;;;;;5019894;28;20153;-57
2022/09/24 11:42:34;;;;;;;9.68;7.80;;;13.90;99.90;;;;;;5015916;28;20560;-57
2022/09/24 11:45:20;;;;;;;7.95;7.05;;;13.90;99.90;;;;;;4975756;28;20058;-56
2022/09/24 11:48:15;;;;;;;7.00;6.18;;;13.90;99.90;;;;;;4977947;28;20714;-55
2022/09/24 11:51:03;;;;;;;10.77;7.47;;;13.90;99.90;;;;;;5013300;28;20310;-57
2022/09/24 11:53:35;;;;;;;12.13;7.10;;;13.90;99.90;;;;;;5020873;28;20500;-55
2022/09/24 11:56:19;;;;;;;6.85;6.15;;;13.90;99.90;;;;;;5021519;28;20111;-57
2022/09/24 11:58:51;;;;;;;9.30;7.60;;;13.90;99.90;;;;;;5016138;28;20466;-57
2022/09/24 12:01:31;;;;;;;8.18;7.38;;;13.90;99.90;;;;;;5019721;28;20504;-56
2022/09/24 12:04:12;;;;;;;10.48;8.27;;;13.90;99.90;;;;;;5022541;28;20332;-54
2022/09/24 12:06:51;;;;;;;8.70;7.07;;;13.90;99.90;;;;;;5020786;28;20330;-57
2022/09/24 12:09:30;;;;;;;7.95;6.22;;;13.90;99.90;;;;;;5027305;28;20461;-58
2022/09/24 12:12:09;;;;;;;7.32;6.10;;;13.90;99.90;;;;;;5023752;28;20297;-54
2022/09/24 12:14:51;;;;;;;8.25;5.10;;;13.90;99.90;;;;;;5020283;28;20075;-57
2022/09/24 12:17:26;;;;;;;7.55;6.53;;;14.00;99.90;;;;;;5021277;28;20142;-55
2022/09/24 12:20:02;;;;;;;8.27;7.43;;;14.00;99.90;;;;;;5021089;28;20130;-57
2022/09/24 12:22:31;;;;;;;9.13;6.57;;;14.00;99.90;;;;;;5019929;28;20606;-56
2022/09/24 12:24:59;;;;;;;7.00;6.18;;;14.00;99.90;;;;;;5025405;28;20132;-59
2022/09/24 12:27:34;;;;;;;6.00;5.40;;;14.00;99.90;;;;;;5023639;28;20455;-54
2022/09/24 12:33:30;;;;;;;7.15;6.18;;;14.10;99.90;;;;;;5022694;28;20115;-62
2022/09/24 12:36:16;;;;;;;8.00;5.75;;;14.10;99.90;;;;;;5024627;28;20148;-60
2022/09/24 12:38:48;;;;;;;5.65;5.15;;;14.20;99.90;;;;;;5024509;28;20053;-57
2022/09/24 12:41:29;;;;;;;8.77;7.15;;;14.20;99.90;;;;;;5022873;28;20072;-57
2022/09/24 12:44:10;;;;;;;10.65;6.43;;;14.20;99.90;;;;;;5017711;28;20132;-55
2022/09/24 12:46:41;;;;;;;8.30;7.22;;;14.30;99.90;;;;;;5022424;28;20045;-55
2022/09/24 12:49:25;;;;;;;7.60;6.38;;;14.30;99.90;;;;;;5023779;28;20618;-56
2022/09/24 12:51:57;;;;;;;8.63;7.28;;;14.30;99.90;;;;;;5037219;28;20368;-63
2022/09/24 12:54:34;;;;;;;8.05;6.90;;;14.40;99.90;;;;;;5019317;28;20076;-61
2022/09/24 12:57:10;;;;;;;7.32;6.60;;;14.40;99.90;;;;;;5025476;28;20376;-54
2022/09/24 12:59:48;;;;;;;7.32;6.43;;;14.40;99.90;;;;;;5020680;28;20099;-54
2022/09/24 13:02:22;;;;;;;8.82;7.93;;;14.40;99.90;;;;;;4992176;28;20526;-55
2022/09/24 13:05:02;;;;;;;9.23;7.53;;;14.40;99.90;;;;;;4971670;28;20872;-55
2022/09/24 13:07:36;;;;;;;9.63;7.75;;;14.40;99.90;;;;;;4973828;28;20030;-61
2022/09/24 13:10:15;;;;;;;7.85;7.05;;;14.40;99.90;;;;;;4979788;28;20041;-61
2022/09/24 13:12:43;;;;;;;6.45;5.75;;;14.30;99.90;;;;;;4976853;28;20295;-61
2022/09/24 13:15:40;;;;;;;7.65;6.85;;;14.30;99.90;;;;;;4968118;28;20449;-61
2022/09/24 13:18:08;;;;;;;8.07;7.15;;;14.30;99.90;;;;;;4975649;28;20051;-61
2022/09/24 13:20:42;;;;;;;8.50;7.32;;;14.30;99.90;;;;;;4969998;28;20040;-61
2022/09/24 13:23:22;;;;;;;7.35;6.65;;;14.30;99.90;;;;;;4986522;28;20588;-54
2022/09/24 13:26:03;;;;;;;8.85;7.75;;;14.30;99.90;;;;;;4974299;28;20230;-62
2022/09/24 13:28:33;;;;;;;11.50;7.20;;;14.40;99.90;;;;;;4975508;28;20037;-56
2022/09/24 13:31:20;;;;;;;7.88;6.75;;;14.30;99.90;;;;;;4980600;28;20044;-57
2022/09/24 13:33:55;;;;;;;9.88;6.07;;;14.30;99.90;;;;;;4968630;28;20542;-57
2022/09/24 13:36:46;;;;;;;6.93;5.22;;;14.40;99.90;;;;;;4977278;28;20870;-57
2022/09/24 13:39:19;;;;;;;7.97;6.13;;;14.40;99.90;;;;;;4980349;28;20268;-56
2022/09/24 13:41:46;;;;;;;6.70;5.63;;;14.40;99.90;;;;;;4977264;28;20065;-56